Sycamore, Illinois
Current Conditions -  °F | °C
As of 5:15 AM on Friday 24 Oct 2014 (Local Time) from KDKB Reporting Station
Overcast Overcast  
Wind Chill: 46°   Ceiling: 2200
Heat Index: 46°   Visibility: 7mi
Dew Point: 44°   Wind: 0mph
Humidity: 92%   Direction: NA
Pressure: 30.06"   Gusts: NA
Location:  41.99°N, 88.68°W
Report Text: KDKB 241015Z AUTO 00000KT 7SM OVC022 08/07 A3006 RMK AO2 T00800068
Loading
Personal Weather Stations






























Interactive Weather Map New forecast layout! Learn more

10-Day Weather Forecast

Advertisements
Track Severe Weather on mobile